createdAt,value
2023-01-29T00:00:29.339Z,472.00
2023-01-29T00:00:59.195Z,471.00
2023-01-29T00:01:29.302Z,471.00
2023-01-29T00:01:59.507Z,472.00
2023-01-29T00:02:29.484Z,471.00
2023-01-29T00:02:59.727Z,470.00
2023-01-29T00:03:29.626Z,470.00
2023-01-29T00:03:59.707Z,470.00
2023-01-29T00:04:29.811Z,470.00
2023-01-29T00:05:09.953Z,471.00
2023-01-29T00:05:29.957Z,471.00
2023-01-29T00:05:59.956Z,471.00
2023-01-29T00:06:30.068Z,470.00
2023-01-29T00:07:00.172Z,470.00
2023-01-29T00:07:30.278Z,468.00
2023-01-29T00:08:00.389Z,467.00
2023-01-29T00:08:30.501Z,469.00
2023-01-29T00:09:00.612Z,471.00
2023-01-29T00:09:30.729Z,471.00
2023-01-29T00:10:00.869Z,470.00
2023-01-29T00:10:31.006Z,471.00
2023-01-29T00:11:00.997Z,472.00
2023-01-29T00:11:31.089Z,472.00
2023-01-29T00:12:01.208Z,471.00
2023-01-29T00:12:31.318Z,472.00
2023-01-29T00:13:01.429Z,472.00
2023-01-29T00:13:31.557Z,471.00
2023-01-29T00:14:01.669Z,471.00
2023-01-29T00:14:31.775Z,474.00
2023-01-29T00:15:01.886Z,474.00
2023-01-29T00:15:32.003Z,475.00
2023-01-29T00:16:02.012Z,475.00
2023-01-29T00:16:32.110Z,475.00
2023-01-29T00:17:02.233Z,473.00
2023-01-29T00:17:32.227Z,473.00
2023-01-29T00:18:02.344Z,473.00
2023-01-29T00:18:32.474Z,474.00
2023-01-29T00:19:02.594Z,473.00
2023-01-29T00:19:32.681Z,475.00
2023-01-29T00:20:02.800Z,476.00
2023-01-29T00:20:32.926Z,475.00
2023-01-29T00:21:02.936Z,476.00
2023-01-29T00:21:32.922Z,475.00
2023-01-29T00:22:03.028Z,473.00
2023-01-29T00:22:33.137Z,472.00
2023-01-29T00:23:03.250Z,474.00
2023-01-29T00:23:33.357Z,475.00
2023-01-29T00:24:03.607Z,475.00
2023-01-29T00:24:33.550Z,475.00
2023-01-29T00:25:03.568Z,476.00
2023-01-29T00:25:33.542Z,477.00
2023-01-29T00:26:03.525Z,478.00
2023-01-29T00:26:33.511Z,477.00
2023-01-29T00:27:03.641Z,476.00
2023-01-29T00:27:33.623Z,476.00
2023-01-29T00:28:03.727Z,474.00
2023-01-29T00:28:33.844Z,473.00
2023-01-29T00:29:03.964Z,470.00
2023-01-29T00:29:34.072Z,472.00
2023-01-29T00:30:04.182Z,474.00
2023-01-29T00:30:34.313Z,472.00
2023-01-29T00:31:04.392Z,473.00
2023-01-29T00:31:34.524Z,471.00
2023-01-29T00:32:04.534Z,475.00
2023-01-29T00:32:34.432Z,475.00
2023-01-29T00:33:04.569Z,474.00
2023-01-29T00:33:34.535Z,475.00
2023-01-29T00:34:04.649Z,475.00
2023-01-29T00:34:34.759Z,476.00
2023-01-29T00:35:04.878Z,472.00
2023-01-29T00:35:35.000Z,471.00
2023-01-29T00:36:04.988Z,473.00
2023-01-29T00:36:35.107Z,472.00
2023-01-29T00:37:05.211Z,473.00
2023-01-29T00:37:35.323Z,474.00
2023-01-29T00:38:05.475Z,473.00
2023-01-29T00:38:35.468Z,472.00
2023-01-29T00:39:05.583Z,467.00
2023-01-29T00:39:47.033Z,466.00
2023-01-29T00:40:05.730Z,465.00
2023-01-29T00:40:35.837Z,466.00
2023-01-29T00:41:05.821Z,462.00
2023-01-29T00:41:35.937Z,463.00
2023-01-29T00:42:06.047Z,465.00
2023-01-29T00:42:36.157Z,465.00
2023-01-29T00:43:06.277Z,466.00
2023-01-29T00:43:36.389Z,469.00
2023-01-29T00:44:06.504Z,467.00
2023-01-29T00:44:36.620Z,466.00
2023-01-29T00:45:06.728Z,465.00
2023-01-29T00:45:36.866Z,467.00
2023-01-29T00:46:06.949Z,467.00
2023-01-29T00:46:37.092Z,469.00
2023-01-29T00:47:07.194Z,470.00
2023-01-29T00:47:37.181Z,471.00
2023-01-29T00:48:07.188Z,473.00
2023-01-29T00:48:37.185Z,474.00
2023-01-29T00:49:07.210Z,476.00
2023-01-29T00:49:37.233Z,473.00
2023-01-29T00:50:07.264Z,470.00
2023-01-29T00:50:37.289Z,471.00
2023-01-29T00:51:07.327Z,470.00
2023-01-29T00:51:37.352Z,470.00
2023-01-29T00:52:07.374Z,469.00
2023-01-29T00:52:37.418Z,470.00
2023-01-29T00:53:07.439Z,469.00
2023-01-29T00:53:37.463Z,469.00
2023-01-29T00:54:07.494Z,469.00
2023-01-29T00:54:37.527Z,468.00
2023-01-29T00:55:07.584Z,468.00
2023-01-29T00:55:37.587Z,467.00
2023-01-29T00:56:07.621Z,468.00
2023-01-29T00:56:37.636Z,468.00
2023-01-29T00:57:07.662Z,465.00
2023-01-29T00:57:37.691Z,468.00
2023-01-29T00:58:07.744Z,470.00
2023-01-29T00:58:37.776Z,469.00
2023-01-29T00:59:07.798Z,470.00
2023-01-29T00:59:37.826Z,473.00
2023-01-29T01:00:07.854Z,473.00
2023-01-29T01:00:38.046Z,474.00
2023-01-29T01:01:07.996Z,474.00
2023-01-29T01:01:38.042Z,472.00
2023-01-29T01:02:08.132Z,473.00
2023-01-29T01:02:38.173Z,472.00
2023-01-29T01:03:08.249Z,473.00
2023-01-29T01:03:38.257Z,473.00
2023-01-29T01:04:08.284Z,473.00
2023-01-29T01:04:38.307Z,472.00
2023-01-29T01:05:08.331Z,469.00
2023-01-29T01:05:38.375Z,470.00
2023-01-29T01:06:08.395Z,470.00
2023-01-29T01:06:38.421Z,470.00
2023-01-29T01:07:08.446Z,469.00
2023-01-29T01:07:38.466Z,471.00
2023-01-29T01:08:08.489Z,470.00
2023-01-29T01:08:38.511Z,468.00
2023-01-29T01:09:08.537Z,467.00
2023-01-29T01:09:38.561Z,467.00
2023-01-29T01:10:08.591Z,468.00
2023-01-29T01:10:38.657Z,468.00
2023-01-29T01:11:08.653Z,468.00
2023-01-29T01:11:38.681Z,468.00
2023-01-29T01:12:08.702Z,469.00
2023-01-29T01:12:38.725Z,471.00
2023-01-29T01:13:08.749Z,471.00
2023-01-29T01:13:38.777Z,469.00
2023-01-29T01:14:08.804Z,469.00
2023-01-29T01:14:38.824Z,467.00
2023-01-29T01:15:08.877Z,467.00
2023-01-29T01:15:38.934Z,468.00
2023-01-29T01:16:09.018Z,469.00
2023-01-29T01:16:39.077Z,469.00
2023-01-29T01:17:09.121Z,468.00
2023-01-29T01:17:39.152Z,465.00
2023-01-29T01:18:09.176Z,464.00
2023-01-29T01:18:39.201Z,466.00
2023-01-29T01:19:09.224Z,466.00
2023-01-29T01:19:39.248Z,466.00
2023-01-29T01:20:09.272Z,465.00
2023-01-29T01:20:39.319Z,466.00
2023-01-29T01:21:09.349Z,464.00
2023-01-29T01:21:39.373Z,464.00
2023-01-29T01:22:09.396Z,464.00
2023-01-29T01:22:39.456Z,462.00
2023-01-29T01:23:09.497Z,462.00
2023-01-29T01:23:39.503Z,463.00
2023-01-29T01:24:09.614Z,464.00
2023-01-29T01:24:39.626Z,463.00
2023-01-29T01:25:09.660Z,463.00
2023-01-29T01:25:39.680Z,462.00
2023-01-29T01:26:09.727Z,463.00
2023-01-29T01:26:39.725Z,464.00
2023-01-29T01:27:09.743Z,464.00
2023-01-29T01:27:39.778Z,467.00
2023-01-29T01:28:09.796Z,467.00
2023-01-29T01:28:39.826Z,469.00
2023-01-29T01:29:09.855Z,471.00
2023-01-29T01:29:39.880Z,470.00
2023-01-29T01:30:09.901Z,470.00
2023-01-29T01:30:39.946Z,471.00
2023-01-29T01:31:10.145Z,470.00
2023-01-29T01:31:40.138Z,471.00
2023-01-29T01:32:10.089Z,469.00
2023-01-29T01:32:40.123Z,468.00
2023-01-29T01:33:10.139Z,469.00
2023-01-29T01:33:40.163Z,469.00
2023-01-29T01:34:10.212Z,467.00
2023-01-29T01:34:40.222Z,465.00
2023-01-29T01:35:10.245Z,464.00
2023-01-29T01:35:40.274Z,464.00
2023-01-29T01:36:10.296Z,463.00
2023-01-29T01:36:40.323Z,461.00
2023-01-29T01:37:10.347Z,460.00
2023-01-29T01:37:40.371Z,458.00
2023-01-29T01:38:10.395Z,456.00
2023-01-29T01:38:40.395Z,458.00
2023-01-29T01:39:10.519Z,459.00
2023-01-29T01:39:40.511Z,458.00
2023-01-29T01:40:10.616Z,458.00
2023-01-29T01:40:40.732Z,460.00
2023-01-29T01:41:10.845Z,459.00
2023-01-29T01:41:40.979Z,459.00
2023-01-29T01:42:11.070Z,459.00
2023-01-29T01:42:41.188Z,460.00
2023-01-29T01:43:11.304Z,460.00
2023-01-29T01:43:41.435Z,460.00
2023-01-29T01:44:11.430Z,461.00
2023-01-29T01:44:41.420Z,461.00
2023-01-29T01:45:11.528Z,462.00
2023-01-29T01:45:41.683Z,462.00
2023-01-29T01:46:11.723Z,464.00
2023-01-29T01:46:41.699Z,465.00
2023-01-29T01:47:11.826Z,466.00
2023-01-29T01:47:41.933Z,468.00
2023-01-29T01:48:12.041Z,468.00
2023-01-29T01:48:42.061Z,468.00
2023-01-29T01:49:12.097Z,468.00
2023-01-29T01:49:42.113Z,467.00
2023-01-29T01:50:12.135Z,466.00
2023-01-29T01:50:42.169Z,465.00
2023-01-29T01:51:12.194Z,465.00
2023-01-29T01:51:42.233Z,465.00
2023-01-29T01:52:12.284Z,465.00
2023-01-29T01:52:42.310Z,467.00
2023-01-29T01:53:12.337Z,468.00
2023-01-29T01:53:42.367Z,470.00
2023-01-29T01:54:12.396Z,472.00
2023-01-29T01:54:42.410Z,473.00
2023-01-29T01:55:12.428Z,472.00
2023-01-29T01:55:42.467Z,473.00
2023-01-29T01:56:12.490Z,474.00
2023-01-29T01:56:42.515Z,474.00
2023-01-29T01:57:12.560Z,473.00
2023-01-29T01:57:42.564Z,472.00
2023-01-29T01:58:12.591Z,472.00
2023-01-29T01:58:42.613Z,471.00
2023-01-29T01:59:12.646Z,471.00
2023-01-29T01:59:42.668Z,468.00
2023-01-29T02:00:12.709Z,468.00
2023-01-29T02:00:42.737Z,470.00
2023-01-29T02:01:12.903Z,471.00
2023-01-29T02:01:42.926Z,471.00
2023-01-29T02:02:12.993Z,472.00
2023-01-29T02:02:42.997Z,472.00
2023-01-29T02:03:13.021Z,474.00
2023-01-29T02:03:43.053Z,475.00
2023-01-29T02:04:13.073Z,474.00
2023-01-29T02:04:43.095Z,474.00
2023-01-29T02:05:13.122Z,472.00
2023-01-29T02:05:43.144Z,475.00
2023-01-29T02:06:13.171Z,475.00
2023-01-29T02:06:43.199Z,475.00
2023-01-29T02:07:13.221Z,474.00
2023-01-29T02:07:43.249Z,473.00
2023-01-29T02:08:13.276Z,474.00
2023-01-29T02:08:43.303Z,475.00
2023-01-29T02:09:13.334Z,473.00
2023-01-29T02:09:43.351Z,470.00
2023-01-29T02:10:13.492Z,472.00
2023-01-29T02:10:43.375Z,471.00
2023-01-29T02:11:13.409Z,470.00
2023-01-29T02:11:43.437Z,470.00
2023-01-29T02:12:13.464Z,470.00
2023-01-29T02:12:43.512Z,466.00
2023-01-29T02:13:13.515Z,466.00
2023-01-29T02:13:43.543Z,461.00
2023-01-29T02:14:13.577Z,460.00
2023-01-29T02:14:43.611Z,460.00
2023-01-29T02:15:13.641Z,463.00
2023-01-29T02:15:43.646Z,464.00
2023-01-29T02:16:13.704Z,465.00
2023-01-29T02:16:43.702Z,466.00
2023-01-29T02:17:13.797Z,465.00
2023-01-29T02:17:43.776Z,466.00
2023-01-29T02:18:13.822Z,466.00
2023-01-29T02:18:43.834Z,468.00
2023-01-29T02:19:13.858Z,466.00
2023-01-29T02:19:43.897Z,466.00
2023-01-29T02:20:14.110Z,465.00
2023-01-29T02:20:44.014Z,465.00
2023-01-29T02:21:14.021Z,464.00
2023-01-29T02:21:44.050Z,463.00
2023-01-29T02:22:14.077Z,461.00
2023-01-29T02:22:44.173Z,462.00
2023-01-29T02:23:14.198Z,463.00
2023-01-29T02:23:44.241Z,463.00
2023-01-29T02:24:14.396Z,464.00
2023-01-29T02:24:44.377Z,465.00
2023-01-29T02:25:14.356Z,466.00
2023-01-29T02:25:44.379Z,465.00
2023-01-29T02:26:14.423Z,463.00
2023-01-29T02:26:44.455Z,461.00
2023-01-29T02:27:14.500Z,461.00
2023-01-29T02:27:44.518Z,463.00
2023-01-29T02:28:14.577Z,462.00
2023-01-29T02:28:44.585Z,463.00
2023-01-29T02:29:14.607Z,463.00
2023-01-29T02:29:44.633Z,464.00
2023-01-29T02:30:15.236Z,465.00
2023-01-29T02:30:44.751Z,463.00
2023-01-29T02:31:14.853Z,463.00
2023-01-29T02:31:44.829Z,463.00
2023-01-29T02:32:14.830Z,464.00
2023-01-29T02:32:44.855Z,463.00
2023-01-29T02:33:14.884Z,462.00
2023-01-29T02:33:44.908Z,462.00
2023-01-29T02:34:14.930Z,463.00
2023-01-29T02:34:44.962Z,461.00
2023-01-29T02:35:15.012Z,461.00
2023-01-29T02:35:45.040Z,462.00
2023-01-29T02:36:15.093Z,462.00
2023-01-29T02:36:45.120Z,462.00
2023-01-29T02:37:15.135Z,462.00
2023-01-29T02:37:45.156Z,463.00
2023-01-29T02:38:15.183Z,462.00
2023-01-29T02:38:45.306Z,463.00
2023-01-29T02:39:15.425Z,462.00
2023-01-29T02:39:48.524Z,460.00
2023-01-29T02:40:15.916Z,460.00
2023-01-29T02:40:45.713Z,459.00
2023-01-29T02:41:15.889Z,460.00
2023-01-29T02:41:45.883Z,461.00
2023-01-29T02:42:15.981Z,462.00
2023-01-29T02:42:46.097Z,463.00
2023-01-29T02:43:16.211Z,465.00
2023-01-29T02:43:46.369Z,464.00
2023-01-29T02:44:16.459Z,464.00
2023-01-29T02:44:46.448Z,464.00
2023-01-29T02:45:16.569Z,465.00
2023-01-29T02:45:46.719Z,467.00
2023-01-29T02:46:16.804Z,468.00
2023-01-29T02:46:46.713Z,469.00
2023-01-29T02:47:16.835Z,470.00
2023-01-29T02:47:46.945Z,470.00
2023-01-29T02:48:17.049Z,468.00
2023-01-29T02:48:47.070Z,467.00
2023-01-29T02:49:17.107Z,467.00
2023-01-29T02:49:47.129Z,467.00
2023-01-29T02:50:17.505Z,469.00
2023-01-29T02:50:47.148Z,470.00
2023-01-29T02:51:17.180Z,471.00
2023-01-29T02:51:47.201Z,471.00
2023-01-29T02:52:17.232Z,467.00
2023-01-29T02:52:47.253Z,468.00
2023-01-29T02:53:17.280Z,467.00
2023-01-29T02:53:47.326Z,469.00
2023-01-29T02:54:17.358Z,470.00
2023-01-29T02:54:47.384Z,470.00
2023-01-29T02:55:17.409Z,470.00
2023-01-29T02:55:47.433Z,470.00
2023-01-29T02:56:17.459Z,472.00
2023-01-29T02:56:47.495Z,472.00
2023-01-29T02:57:17.517Z,472.00
2023-01-29T02:57:47.541Z,473.00
2023-01-29T02:58:17.578Z,475.00
2023-01-29T02:58:47.599Z,475.00
2023-01-29T02:59:17.651Z,475.00
2023-01-29T02:59:47.649Z,475.00
2023-01-29T03:00:18.123Z,475.00
2023-01-29T03:00:47.773Z,472.00
2023-01-29T03:01:17.846Z,472.00
2023-01-29T03:01:47.846Z,473.00
2023-01-29T03:02:17.946Z,472.00
2023-01-29T03:02:47.874Z,470.00
2023-01-29T03:03:17.908Z,468.00
2023-01-29T03:03:47.922Z,471.00
2023-01-29T03:04:17.946Z,472.00
2023-01-29T03:04:47.973Z,473.00
2023-01-29T03:05:17.999Z,474.00
2023-01-29T03:05:48.022Z,473.00
2023-01-29T03:06:18.040Z,474.00
2023-01-29T03:06:48.072Z,471.00
2023-01-29T03:07:18.097Z,472.00
2023-01-29T03:07:48.117Z,472.00
2023-01-29T03:08:18.151Z,470.00
2023-01-29T03:08:48.178Z,469.00
2023-01-29T03:09:18.213Z,469.00
2023-01-29T03:09:48.229Z,468.00
2023-01-29T03:10:18.549Z,467.00
2023-01-29T03:10:48.316Z,468.00
2023-01-29T03:11:18.373Z,468.00
2023-01-29T03:11:48.381Z,464.00
2023-01-29T03:12:19.946Z,463.00
2023-01-29T03:12:48.459Z,462.00
2023-01-29T03:13:18.492Z,464.00
2023-01-29T03:13:48.534Z,465.00
2023-01-29T03:14:18.560Z,467.00
2023-01-29T03:14:48.614Z,464.00
2023-01-29T03:15:18.612Z,465.00
2023-01-29T03:15:48.657Z,465.00
2023-01-29T03:16:18.687Z,466.00
2023-01-29T03:16:48.875Z,466.00
2023-01-29T03:17:18.779Z,467.00
2023-01-29T03:17:48.812Z,467.00
2023-01-29T03:18:18.839Z,466.00
2023-01-29T03:18:48.872Z,464.00
2023-01-29T03:19:18.902Z,466.00
2023-01-29T03:19:48.940Z,466.00
2023-01-29T03:20:19.343Z,469.00
2023-01-29T03:20:48.987Z,465.00
2023-01-29T03:21:19.022Z,468.00
2023-01-29T03:21:49.065Z,467.00
2023-01-29T03:22:19.094Z,465.00
2023-01-29T03:22:49.124Z,465.00
2023-01-29T03:23:19.168Z,467.00
2023-01-29T03:23:49.184Z,467.00
2023-01-29T03:24:19.271Z,463.00
2023-01-29T03:24:49.290Z,464.00
2023-01-29T03:25:19.307Z,463.00
2023-01-29T03:25:49.337Z,462.00
2023-01-29T03:26:19.362Z,461.00
2023-01-29T03:26:49.419Z,460.00
2023-01-29T03:27:19.440Z,461.00
2023-01-29T03:27:49.460Z,463.00
2023-01-29T03:28:19.486Z,465.00
2023-01-29T03:28:49.520Z,464.00
2023-01-29T03:29:19.548Z,464.00
2023-01-29T03:29:49.570Z,464.00
2023-01-29T03:30:19.616Z,466.00
2023-01-29T03:30:49.740Z,467.00
2023-01-29T03:31:19.758Z,465.00
2023-01-29T03:31:49.803Z,466.00
2023-01-29T03:32:19.827Z,467.00
2023-01-29T03:32:49.850Z,466.00
2023-01-29T03:33:19.876Z,465.00
2023-01-29T03:33:49.911Z,467.00
2023-01-29T03:34:19.946Z,467.00
2023-01-29T03:34:49.958Z,466.00
2023-01-29T03:35:19.992Z,466.00
2023-01-29T03:35:50.016Z,468.00
2023-01-29T03:36:20.031Z,467.00
2023-01-29T03:36:50.065Z,467.00
2023-01-29T03:37:20.089Z,466.00
2023-01-29T03:37:50.113Z,469.00
2023-01-29T03:38:20.137Z,469.00
2023-01-29T03:38:50.269Z,469.00
2023-01-29T03:39:20.256Z,470.00
2023-01-29T03:39:50.368Z,472.00
2023-01-29T03:40:20.481Z,472.00
2023-01-29T03:40:50.595Z,472.00
2023-01-29T03:41:20.704Z,473.00
2023-01-29T03:41:50.822Z,472.00
2023-01-29T03:42:20.940Z,471.00
2023-01-29T03:42:50.932Z,470.00
2023-01-29T03:43:21.043Z,473.00
2023-01-29T03:43:51.171Z,475.00
2023-01-29T03:44:21.158Z,475.00
2023-01-29T03:44:51.269Z,476.00
2023-01-29T03:45:21.387Z,477.00
2023-01-29T03:45:51.555Z,475.00
2023-01-29T03:46:21.515Z,476.00
2023-01-29T03:46:51.635Z,476.00
2023-01-29T03:47:21.756Z,474.00
2023-01-29T03:47:51.895Z,475.00
2023-01-29T03:48:21.903Z,474.00
2023-01-29T03:48:51.936Z,475.00
2023-01-29T03:49:21.959Z,476.00
2023-01-29T03:49:51.983Z,477.00
2023-01-29T03:50:22.014Z,479.00
2023-01-29T03:50:52.038Z,478.00
2023-01-29T03:51:22.060Z,478.00
2023-01-29T03:51:52.086Z,479.00
2023-01-29T03:52:22.131Z,479.00
2023-01-29T03:52:52.160Z,478.00
2023-01-29T03:53:22.191Z,477.00
2023-01-29T03:53:52.209Z,477.00
2023-01-29T03:54:22.233Z,477.00
2023-01-29T03:54:52.255Z,478.00
2023-01-29T03:55:22.288Z,478.00
2023-01-29T03:55:52.338Z,479.00
2023-01-29T03:56:22.337Z,478.00
2023-01-29T03:56:52.362Z,477.00
2023-01-29T03:57:22.396Z,479.00
2023-01-29T03:57:52.423Z,477.00
2023-01-29T03:58:22.450Z,477.00
2023-01-29T03:58:52.494Z,478.00
2023-01-29T03:59:22.513Z,474.00
2023-01-29T03:59:52.536Z,474.00
2023-01-29T04:00:22.565Z,474.00
2023-01-29T04:00:52.589Z,475.00
2023-01-29T04:01:22.643Z,475.00
2023-01-29T04:01:52.657Z,476.00
2023-01-29T04:02:22.686Z,474.00
2023-01-29T04:02:52.712Z,475.00
2023-01-29T04:03:22.734Z,474.00
2023-01-29T04:03:52.782Z,473.00
2023-01-29T04:04:22.922Z,475.00
2023-01-29T04:04:52.837Z,473.00
2023-01-29T04:05:22.865Z,474.00
2023-01-29T04:05:52.900Z,473.00
2023-01-29T04:06:22.930Z,474.00
2023-01-29T04:06:52.940Z,474.00
2023-01-29T04:07:22.969Z,475.00
2023-01-29T04:07:52.999Z,475.00
2023-01-29T04:08:23.022Z,473.00
2023-01-29T04:08:53.064Z,472.00
2023-01-29T04:09:23.081Z,470.00
2023-01-29T04:09:53.107Z,468.00
2023-01-29T04:10:23.133Z,473.00
2023-01-29T04:10:53.160Z,472.00
2023-01-29T04:11:23.191Z,473.00
2023-01-29T04:11:53.220Z,472.00
2023-01-29T04:12:23.241Z,471.00
2023-01-29T04:12:53.265Z,472.00
2023-01-29T04:13:23.295Z,472.00
2023-01-29T04:13:53.330Z,468.00
2023-01-29T04:14:23.350Z,467.00
2023-01-29T04:14:53.373Z,468.00
2023-01-29T04:15:23.406Z,470.00
2023-01-29T04:15:53.443Z,471.00
2023-01-29T04:16:23.486Z,469.00
2023-01-29T04:16:53.501Z,467.00
2023-01-29T04:17:23.536Z,467.00
2023-01-29T04:17:53.553Z,466.00
2023-01-29T04:18:23.609Z,465.00
2023-01-29T04:18:53.668Z,465.00
2023-01-29T04:19:23.696Z,465.00
2023-01-29T04:19:53.714Z,465.00
2023-01-29T04:20:23.748Z,464.00
2023-01-29T04:20:53.764Z,464.00
2023-01-29T04:21:23.788Z,463.00
2023-01-29T04:21:53.812Z,466.00
2023-01-29T04:22:23.831Z,467.00
2023-01-29T04:22:53.859Z,468.00
2023-01-29T04:23:23.906Z,467.00
2023-01-29T04:23:53.942Z,468.00
2023-01-29T04:24:24.102Z,469.00
2023-01-29T04:24:54.031Z,469.00
2023-01-29T04:25:24.066Z,468.00
2023-01-29T04:25:54.114Z,469.00
2023-01-29T04:26:24.147Z,470.00
2023-01-29T04:26:54.144Z,470.00
2023-01-29T04:27:24.172Z,470.00
2023-01-29T04:27:54.193Z,471.00
2023-01-29T04:28:24.239Z,472.00
2023-01-29T04:28:54.276Z,473.00
2023-01-29T04:29:24.300Z,474.00
2023-01-29T04:29:54.323Z,473.00
2023-01-29T04:30:24.349Z,473.00
2023-01-29T04:30:54.551Z,473.00
2023-01-29T04:31:24.500Z,474.00
2023-01-29T04:31:54.473Z,474.00
2023-01-29T04:32:24.524Z,472.00
2023-01-29T04:32:54.535Z,471.00
2023-01-29T04:33:24.562Z,471.00
2023-01-29T04:33:54.600Z,469.00
2023-01-29T04:34:24.626Z,473.00
2023-01-29T04:34:54.656Z,472.00
2023-01-29T04:35:24.678Z,470.00
2023-01-29T04:35:54.718Z,467.00
2023-01-29T04:36:24.740Z,463.00
2023-01-29T04:36:54.756Z,465.00
2023-01-29T04:37:24.781Z,469.00
2023-01-29T04:37:54.807Z,468.00
2023-01-29T04:38:24.833Z,470.00
2023-01-29T04:38:54.937Z,470.00
2023-01-29T04:39:24.925Z,470.00
2023-01-29T04:39:55.037Z,471.00
2023-01-29T04:40:25.148Z,469.00
2023-01-29T04:40:55.274Z,470.00
2023-01-29T04:41:25.376Z,469.00
2023-01-29T04:41:55.497Z,470.00
2023-01-29T04:42:25.607Z,470.00
2023-01-29T04:42:55.734Z,470.00
2023-01-29T04:43:25.888Z,471.00
2023-01-29T04:43:55.863Z,471.00
2023-01-29T04:44:25.974Z,471.00
2023-01-29T04:44:56.102Z,472.00
2023-01-29T04:45:26.200Z,473.00
2023-01-29T04:45:56.316Z,473.00
2023-01-29T04:46:26.433Z,472.00
2023-01-29T04:46:56.541Z,473.00
2023-01-29T04:47:26.694Z,474.00
2023-01-29T04:47:56.669Z,474.00
2023-01-29T04:48:26.679Z,473.00
2023-01-29T04:48:56.719Z,472.00
2023-01-29T04:49:26.747Z,471.00
2023-01-29T04:49:56.775Z,470.00
2023-01-29T04:50:26.804Z,474.00
2023-01-29T04:50:56.824Z,474.00
2023-01-29T04:51:26.849Z,475.00
2023-01-29T04:51:56.879Z,476.00
2023-01-29T04:52:26.906Z,476.00
2023-01-29T04:52:56.937Z,476.00
2023-01-29T04:53:26.978Z,474.00
2023-01-29T04:53:57.000Z,474.00
2023-01-29T04:54:27.028Z,474.00
2023-01-29T04:54:57.050Z,473.00
2023-01-29T04:55:27.083Z,475.00
2023-01-29T04:55:57.105Z,477.00
2023-01-29T04:56:27.133Z,475.00
2023-01-29T04:56:57.158Z,473.00
2023-01-29T04:57:27.187Z,472.00
2023-01-29T04:57:57.211Z,471.00
2023-01-29T04:58:27.265Z,472.00
2023-01-29T04:58:57.310Z,472.00
2023-01-29T04:59:27.373Z,471.00
2023-01-29T04:59:57.417Z,472.00
2023-01-29T05:00:27.458Z,473.00
2023-01-29T05:00:57.482Z,471.00
2023-01-29T05:01:27.518Z,469.00
2023-01-29T05:01:57.602Z,469.00
2023-01-29T05:02:27.668Z,468.00
2023-01-29T05:02:57.707Z,470.00
2023-01-29T05:03:27.772Z,468.00
2023-01-29T05:03:57.787Z,468.00
2023-01-29T05:04:27.815Z,468.00
2023-01-29T05:04:57.836Z,468.00
2023-01-29T05:05:27.867Z,468.00
2023-01-29T05:05:57.888Z,469.00
2023-01-29T05:06:27.918Z,469.00
2023-01-29T05:06:57.946Z,467.00
2023-01-29T05:07:27.959Z,468.00
2023-01-29T05:07:58.009Z,467.00
2023-01-29T05:08:28.043Z,467.00
2023-01-29T05:08:58.072Z,466.00
2023-01-29T05:09:28.092Z,462.00
2023-01-29T05:09:58.117Z,462.00
2023-01-29T05:10:28.151Z,463.00
2023-01-29T05:10:58.200Z,465.00
2023-01-29T05:11:28.255Z,465.00
2023-01-29T05:11:58.282Z,465.00
2023-01-29T05:12:28.336Z,466.00
2023-01-29T05:12:58.372Z,466.00
2023-01-29T05:13:28.466Z,464.00
2023-01-29T05:13:58.515Z,462.00
2023-01-29T05:14:28.573Z,460.00
2023-01-29T05:14:58.597Z,461.00
2023-01-29T05:15:28.670Z,461.00
2023-01-29T05:15:58.730Z,459.00
2023-01-29T05:16:28.755Z,460.00
2023-01-29T05:16:58.811Z,462.00
2023-01-29T05:17:28.851Z,460.00
2023-01-29T05:17:58.883Z,461.00
2023-01-29T05:18:28.910Z,461.00
2023-01-29T05:18:58.947Z,462.00
2023-01-29T05:19:28.968Z,460.00
2023-01-29T05:19:58.998Z,462.00
2023-01-29T05:20:29.017Z,462.00
2023-01-29T05:20:59.045Z,463.00
2023-01-29T05:21:29.067Z,463.00
2023-01-29T05:21:59.102Z,463.00
2023-01-29T05:22:29.125Z,463.00
2023-01-29T05:22:59.148Z,464.00
2023-01-29T05:23:29.179Z,464.00
2023-01-29T05:23:59.226Z,464.00
2023-01-29T05:24:29.351Z,465.00
2023-01-29T05:24:59.350Z,465.00
2023-01-29T05:25:29.384Z,465.00
2023-01-29T05:25:59.410Z,467.00
2023-01-29T05:26:29.436Z,468.00
2023-01-29T05:26:59.467Z,470.00
2023-01-29T05:27:29.488Z,469.00
2023-01-29T05:27:59.517Z,469.00
2023-01-29T05:28:29.552Z,468.00
2023-01-29T05:28:59.590Z,466.00
2023-01-29T05:29:29.609Z,466.00
2023-01-29T05:29:59.644Z,468.00
2023-01-29T05:30:29.661Z,467.00
2023-01-29T05:30:59.811Z,466.00
2023-01-29T05:31:29.833Z,466.00
2023-01-29T05:31:59.807Z,465.00
2023-01-29T05:32:29.878Z,463.00
2023-01-29T05:32:59.906Z,461.00
2023-01-29T05:33:30.011Z,460.00
2023-01-29T05:34:00.064Z,461.00
2023-01-29T05:34:30.071Z,462.00
2023-01-29T05:35:00.114Z,463.00
2023-01-29T05:35:30.127Z,466.00
2023-01-29T05:36:00.157Z,468.00
2023-01-29T05:36:30.190Z,469.00
2023-01-29T05:37:00.212Z,471.00
2023-01-29T05:37:30.259Z,471.00
2023-01-29T05:38:00.282Z,471.00
2023-01-29T05:38:30.310Z,474.00
2023-01-29T05:39:00.418Z,474.00
2023-01-29T05:39:30.400Z,474.00
2023-01-29T05:40:00.525Z,472.00
2023-01-29T05:40:30.639Z,471.00
2023-01-29T05:41:00.756Z,473.00
2023-01-29T05:41:30.768Z,473.00
2023-01-29T05:42:00.909Z,472.00
2023-01-29T05:42:30.873Z,471.00
2023-01-29T05:43:00.976Z,470.00
2023-01-29T05:43:31.092Z,471.00
2023-01-29T05:44:01.226Z,474.00
2023-01-29T05:44:31.206Z,471.00
2023-01-29T05:45:01.390Z,471.00
2023-01-29T05:45:31.367Z,470.00
2023-01-29T05:46:01.481Z,470.00
2023-01-29T05:46:31.620Z,471.00
2023-01-29T05:47:01.601Z,470.00
2023-01-29T05:47:31.704Z,469.00
2023-01-29T05:48:01.827Z,468.00
2023-01-29T05:48:31.822Z,468.00
2023-01-29T05:49:01.870Z,467.00
2023-01-29T05:49:31.887Z,466.00
2023-01-29T05:50:01.920Z,465.00
2023-01-29T05:50:31.942Z,466.00
2023-01-29T05:51:01.969Z,464.00
2023-01-29T05:51:32.003Z,463.00
2023-01-29T05:52:02.012Z,465.00
2023-01-29T05:52:32.034Z,464.00
2023-01-29T05:53:02.058Z,465.00
2023-01-29T05:53:32.110Z,465.00
2023-01-29T05:54:02.135Z,463.00
2023-01-29T05:54:32.155Z,464.00
2023-01-29T05:55:02.181Z,463.00
2023-01-29T05:55:32.232Z,464.00
2023-01-29T05:56:02.240Z,464.00
2023-01-29T05:56:32.263Z,463.00
2023-01-29T05:57:02.290Z,462.00
2023-01-29T05:57:32.314Z,461.00
2023-01-29T05:58:04.781Z,460.00
2023-01-29T05:58:32.373Z,462.00
2023-01-29T05:59:02.415Z,461.00
2023-01-29T05:59:32.441Z,463.00
2023-01-29T06:00:02.477Z,462.00
2023-01-29T06:00:32.499Z,462.00
2023-01-29T06:01:02.524Z,462.00
2023-01-29T06:01:32.614Z,460.00
2023-01-29T06:02:02.666Z,459.00
2023-01-29T06:02:32.737Z,458.00
2023-01-29T06:03:02.806Z,459.00
2023-01-29T06:03:32.820Z,457.00
2023-01-29T06:04:02.852Z,459.00
2023-01-29T06:04:32.885Z,460.00
2023-01-29T06:05:02.907Z,460.00
2023-01-29T06:05:32.933Z,459.00
2023-01-29T06:06:02.964Z,459.00
2023-01-29T06:06:32.993Z,460.00
2023-01-29T06:07:03.035Z,459.00
2023-01-29T06:07:33.058Z,456.00
2023-01-29T06:08:03.080Z,454.00
2023-01-29T06:08:33.105Z,453.00
2023-01-29T06:09:03.147Z,454.00
2023-01-29T06:09:33.169Z,453.00
2023-01-29T06:10:03.206Z,454.00
2023-01-29T06:10:33.216Z,454.00
2023-01-29T06:11:03.236Z,455.00
2023-01-29T06:11:33.262Z,453.00
2023-01-29T06:12:03.288Z,454.00
2023-01-29T06:12:33.314Z,453.00
2023-01-29T06:13:03.340Z,453.00
2023-01-29T06:13:33.357Z,455.00
2023-01-29T06:14:03.385Z,454.00
2023-01-29T06:14:33.412Z,457.00
2023-01-29T06:15:03.440Z,459.00